Time;durP1;ratioP1;P1;durP2;ratioP2;P2;SDS_P1;SDS_P2;PMS_P1;PMS_P2;Temp;Humidity;BMP_temperature;BMP_pressure;BME280_temperature;BME280_humidity;BME280_pressure;Samples;Min_cycle;Max_cycle;Signal;HPM_P1;HPM_P2
2023/04/17 00:01:54;;;;;;;4.68;3.05;;;14.80;56.20;;;;;;5108915;27;45330;-73
2023/04/17 00:04:20;;;;;;;4.18;3.00;;;14.80;56.20;;;;;;5109269;27;45277;-74
2023/04/17 00:06:48;;;;;;;4.72;2.92;;;14.80;56.30;;;;;;5108674;27;46790;-74
2023/04/17 00:09:15;;;;;;;4.70;3.22;;;14.80;56.20;;;;;;5108683;27;45386;-74
2023/04/17 00:11:43;;;;;;;3.53;3.22;;;14.80;56.20;;;;;;5109570;27;45232;-74
2023/04/17 00:14:10;;;;;;;3.25;2.95;;;14.70;56.20;;;;;;5109155;27;45360;-74
2023/04/17 00:16:36;;;;;;;4.45;3.00;;;14.80;56.30;;;;;;5108518;27;46403;-73
2023/04/17 00:19:03;;;;;;;3.45;3.15;;;14.70;56.20;;;;;;5108419;27;45460;-74
2023/04/17 00:21:31;;;;;;;4.47;3.15;;;14.70;56.30;;;;;;5108617;27;45244;-74
2023/04/17 00:23:57;;;;;;;3.80;3.22;;;14.70;56.30;;;;;;5108783;27;45380;-75
2023/04/17 00:26:24;;;;;;;3.95;2.92;;;14.70;56.30;;;;;;5108222;27;46261;-74
2023/04/17 00:28:52;;;;;;;3.60;3.05;;;14.70;56.30;;;;;;5108286;27;45288;-74
2023/04/17 00:31:19;;;;;;;4.82;3.50;;;14.70;56.30;;;;;;5108556;27;45145;-74
2023/04/17 00:33:46;;;;;;;4.07;3.05;;;14.70;56.20;;;;;;5108627;27;45642;-75
2023/04/17 00:36:14;;;;;;;4.97;3.08;;;14.70;56.20;;;;;;5108430;27;45566;-75
2023/04/17 00:38:41;;;;;;;4.20;3.40;;;14.70;56.30;;;;;;5108560;27;45320;-74
2023/04/17 00:41:07;;;;;;;4.07;3.03;;;14.70;56.20;;;;;;5108202;27;45310;-75
2023/04/17 00:43:34;;;;;;;4.57;3.40;;;14.70;56.40;;;;;;5107473;27;45413;-74
2023/04/17 00:46:03;;;;;;;4.40;3.20;;;14.70;56.40;;;;;;5107733;27;46479;-74
2023/04/17 00:48:29;;;;;;;4.78;3.70;;;14.70;56.30;;;;;;5108049;27;45334;-74
2023/04/17 00:51:00;;;;;;;3.20;2.80;;;14.70;56.30;;;;;;5108172;27;45303;-75
2023/04/17 00:53:27;;;;;;;3.63;3.10;;;14.70;56.30;;;;;;5108357;27;45429;-74
2023/04/17 00:55:54;;;;;;;4.63;3.08;;;14.70;56.30;;;;;;5107832;27;46425;-75
2023/04/17 00:58:21;;;;;;;5.40;3.65;;;14.70;56.40;;;;;;5107661;27;45273;-74
2023/04/17 01:00:48;;;;;;;4.20;3.15;;;14.70;56.40;;;;;;5107800;27;45137;-75
2023/04/17 01:03:16;;;;;;;4.65;3.40;;;14.70;56.40;;;;;;5108016;27;45297;-75
2023/04/17 01:05:43;;;;;;;4.30;3.40;;;14.60;56.40;;;;;;5107509;27;46933;-74
2023/04/17 01:08:10;;;;;;;4.03;3.20;;;14.60;56.40;;;;;;5107675;27;45266;-74
2023/04/17 01:10:37;;;;;;;4.63;3.28;;;14.60;56.30;;;;;;5107818;27;45295;-75
2023/04/17 01:13:04;;;;;;;4.88;3.40;;;14.70;56.40;;;;;;5107659;27;45356;-74
2023/04/17 01:15:31;;;;;;;3.90;3.03;;;14.70;56.40;;;;;;5107492;27;48663;-74
2023/04/17 01:17:57;;;;;;;7.45;3.63;;;14.60;56.40;;;;;;5107508;27;45379;-73
2023/04/17 01:20:30;;;;;;;4.45;3.30;;;14.60;56.30;;;;;;5107555;27;45260;-74
2023/04/17 01:22:56;;;;;;;4.25;3.20;;;14.60;56.40;;;;;;5107799;27;45366;-74
2023/04/17 01:25:25;;;;;;;4.30;3.00;;;14.60;56.30;;;;;;5107473;27;46264;-75
2023/04/17 01:27:51;;;;;;;4.00;2.85;;;14.60;56.40;;;;;;5107348;27;45236;-74
2023/04/17 01:30:18;;;;;;;5.00;3.75;;;14.60;56.30;;;;;;5107399;27;45417;-73
2023/04/17 01:32:45;;;;;;;3.70;2.97;;;14.60;56.30;;;;;;5107769;27;45298;-74
2023/04/17 01:35:12;;;;;;;3.35;3.05;;;14.60;56.30;;;;;;5107186;27;47311;-74
2023/04/17 01:37:39;;;;;;;3.92;3.40;;;14.60;56.90;;;;;;5107295;27;45233;-74
2023/04/17 01:40:07;;;;;;;4.28;3.10;;;14.60;56.90;;;;;;5107381;27;45256;-75
2023/04/17 01:42:35;;;;;;;4.40;3.40;;;14.60;56.30;;;;;;5107438;27;45567;-74
2023/04/17 01:45:02;;;;;;;4.57;3.42;;;14.60;56.40;;;;;;5106736;27;46401;-73
2023/04/17 01:47:29;;;;;;;4.70;3.42;;;14.60;56.40;;;;;;5107031;27;45330;-76
2023/04/17 01:49:56;;;;;;;4.50;3.75;;;14.60;56.40;;;;;;5107090;27;45253;-74
2023/04/17 01:52:23;;;;;;;4.78;3.47;;;14.60;56.40;;;;;;5107243;27;45253;-76
2023/04/17 01:54:49;;;;;;;4.90;3.50;;;14.60;56.30;;;;;;5106602;27;46635;-76
2023/04/17 01:57:16;;;;;;;4.20;3.22;;;14.60;56.40;;;;;;5106678;27;45309;-76
2023/04/17 01:59:44;;;;;;;3.38;2.80;;;14.60;56.30;;;;;;5106885;27;45328;-76
2023/04/17 02:02:11;;;;;;;4.20;3.15;;;14.60;57.00;;;;;;5107030;27;45415;-76
2023/04/17 02:04:38;;;;;;;3.70;3.30;;;14.60;56.40;;;;;;5106671;27;45475;-76
2023/04/17 02:07:05;;;;;;;4.25;3.28;;;14.60;56.40;;;;;;5106637;27;45437;-77
2023/04/17 02:09:32;;;;;;;3.72;3.10;;;14.60;56.40;;;;;;5106870;27;45339;-76
2023/04/17 02:11:58;;;;;;;6.43;3.25;;;14.60;56.40;;;;;;5107102;27;45360;-76
2023/04/17 02:14:25;;;;;;;5.00;3.25;;;14.60;56.40;;;;;;5106506;27;46275;-76
2023/04/17 02:16:53;;;;;;;3.78;3.22;;;14.50;56.30;;;;;;5106752;27;45302;-74
2023/04/17 02:19:21;;;;;;;5.20;3.67;;;14.50;57.00;;;;;;5106777;27;45328;-75
2023/04/17 02:21:48;;;;;;;4.47;3.05;;;14.60;56.30;;;;;;5106799;27;45488;-76
2023/04/17 02:24:15;;;;;;;4.53;3.38;;;14.60;56.40;;;;;;5106396;27;46714;-76
2023/04/17 02:26:42;;;;;;;5.53;3.40;;;14.60;56.40;;;;;;5106411;27;45259;-76
2023/04/17 02:29:08;;;;;;;5.07;3.42;;;14.60;56.90;;;;;;5106519;27;45238;-74
2023/04/17 02:31:35;;;;;;;3.72;3.25;;;14.50;56.30;;;;;;5106572;27;45236;-76
2023/04/17 02:34:03;;;;;;;4.63;3.65;;;14.50;56.40;;;;;;5106127;27;46395;-76
2023/04/17 02:36:35;;;;;;;4.15;3.25;;;14.50;56.40;;;;;;5106336;27;45252;-76
2023/04/17 02:39:02;;;;;;;4.75;3.53;;;14.50;56.50;;;;;;5106405;27;45241;-76
2023/04/17 02:41:29;;;;;;;5.05;3.25;;;14.50;56.40;;;;;;5106458;27;45394;-76
2023/04/17 02:43:57;;;;;;;4.53;3.65;;;14.50;56.40;;;;;;5106025;27;47362;-76
2023/04/17 02:46:24;;;;;;;4.10;3.45;;;14.50;56.40;;;;;;5106094;27;45334;-76
2023/04/17 02:48:51;;;;;;;4.78;3.25;;;14.50;56.40;;;;;;5106338;27;45329;-76
2023/04/17 02:51:19;;;;;;;4.72;3.40;;;14.50;56.40;;;;;;5106352;27;45297;-75
2023/04/17 02:53:47;;;;;;;3.22;2.92;;;14.50;56.40;;;;;;5106015;27;46826;-76
2023/04/17 02:56:14;;;;;;;4.50;3.20;;;14.50;56.30;;;;;;5106032;27;45307;-76
2023/04/17 02:58:43;;;;;;;4.30;3.40;;;14.50;56.30;;;;;;5106147;27;45235;-76
2023/04/17 03:01:10;;;;;;;5.63;3.55;;;14.50;56.30;;;;;;5106400;27;45295;-76
2023/04/17 03:03:40;;;;;;;4.68;3.22;;;14.50;56.40;;;;;;5105762;27;46417;-77
2023/04/17 03:06:08;;;;;;;4.72;3.20;;;14.40;56.40;;;;;;5107960;27;45312;-76
2023/04/17 03:08:37;;;;;;;4.18;3.30;;;14.40;56.40;;;;;;5109575;27;45308;-76
2023/04/17 03:11:04;;;;;;;4.53;2.92;;;14.50;56.40;;;;;;5109700;27;45261;-76
2023/04/17 03:13:32;;;;;;;5.10;3.75;;;14.50;56.40;;;;;;5109246;27;45542;-77
2023/04/17 03:16:00;;;;;;;4.25;3.40;;;14.50;56.40;;;;;;5109335;27;45328;-75
2023/04/17 03:18:27;;;;;;;5.85;3.85;;;14.50;56.40;;;;;;5109570;27;45326;-76
2023/04/17 03:20:53;;;;;;;4.82;3.33;;;14.50;56.40;;;;;;5109605;27;45358;-75
2023/04/17 03:23:20;;;;;;;3.97;3.17;;;14.50;56.50;;;;;;5109111;27;45471;-76
2023/04/17 03:25:49;;;;;;;3.45;3.13;;;14.50;56.40;;;;;;5109155;27;45305;-76
2023/04/17 03:28:17;;;;;;;3.40;3.03;;;14.50;56.40;;;;;;5109441;27;45350;-76
2023/04/17 03:30:44;;;;;;;4.53;3.08;;;14.50;56.40;;;;;;5109427;27;45273;-76
2023/04/17 03:33:10;;;;;;;4.10;3.10;;;14.50;56.40;;;;;;5109421;27;47562;-77
2023/04/17 03:35:37;;;;;;;4.03;3.17;;;14.40;56.40;;;;;;5109108;27;45251;-76
2023/04/17 03:38:04;;;;;;;5.75;3.38;;;14.40;56.40;;;;;;5109148;27;45274;-76
2023/04/17 03:40:31;;;;;;;3.42;2.95;;;14.40;56.40;;;;;;5109193;27;45390;-75
2023/04/17 03:42:59;;;;;;;4.60;3.20;;;14.40;56.40;;;;;;5108803;27;45337;-75
2023/04/17 03:45:26;;;;;;;4.60;3.58;;;14.40;56.40;;;;;;5108561;27;45388;-76
2023/04/17 03:47:53;;;;;;;3.75;3.22;;;14.40;56.40;;;;;;5109094;27;45390;-76
2023/04/17 03:50:20;;;;;;;3.28;2.97;;;14.40;56.40;;;;;;5109057;27;45435;-76
2023/04/17 03:52:46;;;;;;;3.95;3.17;;;14.40;56.40;;;;;;5108781;27;46297;-76
2023/04/17 03:55:13;;;;;;;3.67;3.20;;;14.40;56.40;;;;;;5108722;27;45513;-76
2023/04/17 03:57:40;;;;;;;4.00;3.45;;;14.40;56.40;;;;;;5108900;27;45361;-76
2023/04/17 04:00:10;;;;;;;3.63;3.00;;;14.40;56.50;;;;;;5109089;27;45352;-77
2023/04/17 04:02:37;;;;;;;4.68;3.40;;;14.40;57.00;;;;;;5108600;27;45481;-76
2023/04/17 04:05:04;;;;;;;4.40;3.40;;;14.40;56.40;;;;;;5108528;27;45432;-76
2023/04/17 04:07:36;;;;;;;5.57;3.53;;;14.40;56.40;;;;;;5108583;27;45254;-73
2023/04/17 04:10:02;;;;;;;4.68;3.85;;;14.40;57.00;;;;;;5108794;27;45319;-76
2023/04/17 04:12:29;;;;;;;4.82;3.20;;;14.40;56.50;;;;;;5108157;27;45415;-74
2023/04/17 04:14:56;;;;;;;3.92;3.25;;;14.40;56.40;;;;;;5108562;27;45466;-76
2023/04/17 04:17:24;;;;;;;3.33;2.97;;;14.40;56.40;;;;;;5108668;27;45276;-73
2023/04/17 04:19:51;;;;;;;7.13;3.55;;;14.40;56.40;;;;;;5108696;27;45572;-77
2023/04/17 04:22:20;;;;;;;4.93;3.60;;;14.40;57.00;;;;;;5108421;27;45306;-75
2023/04/17 04:24:46;;;;;;;4.40;3.42;;;14.40;56.40;;;;;;5108686;27;45353;-76
2023/04/17 04:27:16;;;;;;;5.38;3.72;;;14.40;56.40;;;;;;5108766;27;45270;-76
2023/04/17 04:29:44;;;;;;;4.95;3.85;;;14.30;56.40;;;;;;5108941;27;45356;-75
2023/04/17 04:32:12;;;;;;;4.65;3.08;;;14.30;56.40;;;;;;5108359;27;45707;-75
2023/04/17 04:34:40;;;;;;;4.22;3.45;;;14.30;56.40;;;;;;5108107;27;45293;-76
2023/04/17 04:37:08;;;;;;;4.53;3.35;;;14.30;56.40;;;;;;5108503;27;45322;-75
2023/04/17 04:39:36;;;;;;;4.43;3.35;;;14.30;56.50;;;;;;5108367;27;45593;-76
2023/04/17 04:42:08;;;;;;;4.65;3.78;;;14.30;56.50;;;;;;5107906;27;47682;-76
2023/04/17 04:44:35;;;;;;;4.78;3.50;;;14.30;56.50;;;;;;5107771;27;45342;-76
2023/04/17 04:47:02;;;;;;;4.88;3.42;;;14.30;56.50;;;;;;5108060;27;45464;-76
2023/04/17 04:49:29;;;;;;;5.45;3.50;;;14.30;56.50;;;;;;5108171;27;45375;-77
2023/04/17 04:51:57;;;;;;;5.57;3.47;;;14.30;56.50;;;;;;5107716;27;45356;-76
2023/04/17 04:54:24;;;;;;;4.93;4.00;;;14.30;56.50;;;;;;5107824;27;45332;-75
2023/04/17 04:56:50;;;;;;;4.63;3.58;;;14.30;56.50;;;;;;5107823;27;45268;-76
2023/04/17 04:59:17;;;;;;;5.13;3.70;;;14.30;56.50;;;;;;5108000;27;45323;-76
2023/04/17 05:01:44;;;;;;;5.18;3.65;;;14.30;56.70;;;;;;5107513;27;46484;-76
2023/04/17 05:04:11;;;;;;;4.00;3.60;;;14.30;56.50;;;;;;5107649;27;45379;-76
2023/04/17 05:06:38;;;;;;;4.93;3.75;;;14.30;56.60;;;;;;5107943;27;45373;-76
2023/04/17 05:09:06;;;;;;;4.22;3.20;;;14.30;56.60;;;;;;5107775;27;45367;-76
2023/04/17 05:11:33;;;;;;;4.45;3.55;;;14.30;56.70;;;;;;5107336;27;45425;-77
2023/04/17 05:14:00;;;;;;;4.65;3.38;;;14.30;56.70;;;;;;5107825;27;45229;-76
2023/04/17 05:16:27;;;;;;;5.18;3.70;;;14.30;56.80;;;;;;5107704;27;45273;-76
2023/04/17 05:18:54;;;;;;;5.47;3.63;;;14.30;56.70;;;;;;5107814;27;45371;-76
2023/04/17 05:21:21;;;;;;;6.30;3.47;;;14.30;56.70;;;;;;5107289;27;46358;-77
2023/04/17 05:23:47;;;;;;;5.07;3.78;;;14.30;56.80;;;;;;5107327;27;45371;-77
2023/04/17 05:26:16;;;;;;;5.88;3.47;;;14.20;56.70;;;;;;5108313;27;45178;-77
2023/04/17 05:28:43;;;;;;;4.10;3.50;;;14.30;56.70;;;;;;5107876;27;45311;-77
2023/04/17 05:31:10;;;;;;;4.25;3.00;;;14.30;56.70;;;;;;5107202;27;47560;-76
2023/04/17 05:33:37;;;;;;;3.92;3.45;;;14.20;56.60;;;;;;5107302;27;45462;-76
2023/04/17 05:36:04;;;;;;;5.03;3.40;;;14.30;56.70;;;;;;5107420;27;45264;-76
2023/04/17 05:38:31;;;;;;;4.97;3.58;;;14.30;56.60;;;;;;5107531;27;45399;-76
2023/04/17 05:40:58;;;;;;;4.68;3.85;;;14.30;56.60;;;;;;5106716;27;45472;-76
2023/04/17 05:43:26;;;;;;;4.30;3.33;;;14.20;56.60;;;;;;5107060;27;45330;-76
2023/04/17 05:45:53;;;;;;;5.03;3.40;;;14.30;57.20;;;;;;5106075;27;45715;-76
2023/04/17 05:48:20;;;;;;;4.30;3.25;;;14.20;56.60;;;;;;5107096;27;45286;-76
2023/04/17 05:50:47;;;;;;;4.45;3.63;;;14.20;57.20;;;;;;5106732;27;46394;-75
2023/04/17 05:53:13;;;;;;;4.50;3.55;;;14.30;56.70;;;;;;5106741;27;45434;-76
2023/04/17 05:55:40;;;;;;;4.15;3.15;;;14.30;56.70;;;;;;5106904;27;45285;-76
2023/04/17 05:58:07;;;;;;;4.60;3.65;;;14.30;56.70;;;;;;5107100;27;45378;-77
2023/04/17 06:00:35;;;;;;;4.57;3.80;;;14.30;56.60;;;;;;5106596;27;45450;-75
2023/04/17 06:03:02;;;;;;;4.85;3.40;;;14.30;56.70;;;;;;5106806;27;45326;-76
2023/04/17 06:05:29;;;;;;;4.78;3.53;;;14.30;56.70;;;;;;5106811;27;45362;-76
2023/04/17 06:07:56;;;;;;;5.03;3.53;;;14.30;56.70;;;;;;5106860;27;45333;-75
2023/04/17 06:10:23;;;;;;;5.32;4.00;;;14.30;56.70;;;;;;5106504;27;45625;-76
2023/04/17 06:12:50;;;;;;;5.10;3.58;;;14.30;56.60;;;;;;5106622;27;45309;-76
2023/04/17 06:15:16;;;;;;;4.40;3.40;;;14.30;56.80;;;;;;5106808;27;45290;-76
2023/04/17 06:17:45;;;;;;;4.10;3.30;;;14.30;56.70;;;;;;5106976;27;45312;-75
2023/04/17 06:20:12;;;;;;;5.30;4.18;;;14.20;56.70;;;;;;5106491;27;47243;-76
2023/04/17 06:22:40;;;;;;;4.35;3.80;;;14.30;56.70;;;;;;5106337;27;45310;-76
2023/04/17 06:25:07;;;;;;;5.18;3.90;;;14.30;56.70;;;;;;5106476;27;45412;-76
2023/04/17 06:27:34;;;;;;;5.00;4.00;;;14.30;56.70;;;;;;5106562;27;45493;-76
2023/04/17 06:30:01;;;;;;;4.15;3.42;;;14.30;56.70;;;;;;5106162;27;46389;-76
2023/04/17 06:32:28;;;;;;;4.57;3.55;;;14.30;56.50;;;;;;5106179;27;45467;-76
2023/04/17 06:34:56;;;;;;;4.30;3.50;;;14.30;56.50;;;;;;5106690;27;45335;-74
2023/04/17 06:37:22;;;;;;;5.15;3.55;;;14.30;56.50;;;;;;5106768;27;45264;-76
2023/04/17 06:39:49;;;;;;;4.60;3.72;;;14.30;56.50;;;;;;5105919;27;45564;-74
2023/04/17 06:42:16;;;;;;;4.15;3.63;;;14.30;56.60;;;;;;5109799;27;45264;-76
2023/04/17 06:44:43;;;;;;;5.18;3.63;;;14.30;56.50;;;;;;5109682;27;45385;-76
2023/04/17 06:47:10;;;;;;;5.63;3.75;;;14.40;56.50;;;;;;5110128;27;45363;-74
2023/04/17 06:49:36;;;;;;;5.13;3.80;;;14.40;56.60;;;;;;5109503;27;46430;-76
2023/04/17 06:52:05;;;;;;;5.68;4.05;;;14.30;56.40;;;;;;5109658;27;45313;-76
2023/04/17 06:54:31;;;;;;;5.10;3.70;;;14.40;56.60;;;;;;5109848;27;45276;-76
2023/04/17 06:56:58;;;;;;;5.32;3.70;;;14.40;56.70;;;;;;5109782;27;45321;-76
2023/04/17 06:59:25;;;;;;;3.85;3.22;;;14.40;56.60;;;;;;5109391;27;46271;-76
2023/04/17 07:01:52;;;;;;;6.43;4.00;;;14.30;56.70;;;;;;5109539;27;45384;-76
2023/04/17 07:04:19;;;;;;;8.68;3.72;;;14.40;56.60;;;;;;5109471;27;45280;-76
2023/04/17 07:06:46;;;;;;;4.78;3.70;;;14.40;56.70;;;;;;5109529;27;45473;-76
2023/04/17 07:09:15;;;;;;;4.88;3.78;;;14.40;56.60;;;;;;5109315;27;45455;-76
2023/04/17 07:11:42;;;;;;;4.85;3.80;;;14.40;56.70;;;;;;5109086;27;45331;-75
2023/04/17 07:14:08;;;;;;;6.32;4.35;;;14.40;56.70;;;;;;5109508;27;45276;-76
2023/04/17 07:16:35;;;;;;;4.40;3.58;;;14.40;56.60;;;;;;5109515;27;45399;-77
2023/04/17 07:19:02;;;;;;;5.78;3.97;;;14.40;56.60;;;;;;5109083;27;46302;-75
2023/04/17 07:21:29;;;;;;;5.50;3.78;;;14.40;56.60;;;;;;5109115;27;45353;-76
2023/04/17 07:23:56;;;;;;;5.63;3.50;;;14.40;56.60;;;;;;5109362;27;45281;-76
2023/04/17 07:26:24;;;;;;;5.45;3.70;;;14.40;56.60;;;;;;5109612;27;45411;-76
2023/04/17 07:28:51;;;;;;;5.13;3.63;;;14.50;56.60;;;;;;5108973;27;47557;-76
2023/04/17 07:31:18;;;;;;;4.68;3.55;;;14.50;56.50;;;;;;5109111;27;45334;-76
2023/04/17 07:33:44;;;;;;;4.63;3.70;;;14.50;56.50;;;;;;5109498;27;45324;-76
2023/04/17 07:36:11;;;;;;;4.28;3.55;;;14.50;56.50;;;;;;5109604;27;45280;-76
2023/04/17 07:38:38;;;;;;;4.15;3.47;;;14.50;56.50;;;;;;5109203;27;45720;-76
2023/04/17 07:41:05;;;;;;;4.57;3.63;;;14.50;56.50;;;;;;5108876;27;45347;-76
2023/04/17 07:43:33;;;;;;;5.40;3.30;;;14.50;56.50;;;;;;5109263;27;45301;-77
2023/04/17 07:46:00;;;;;;;5.13;3.70;;;14.50;56.50;;;;;;5108873;27;45368;-76
2023/04/17 07:48:27;;;;;;;5.35;3.40;;;14.50;56.50;;;;;;5108913;27;45310;-76
2023/04/17 07:50:54;;;;;;;5.43;4.05;;;14.50;56.40;;;;;;5108573;27;45268;-76
2023/04/17 07:53:24;;;;;;;5.85;3.80;;;14.50;56.40;;;;;;5109335;27;45290;-76
2023/04/17 07:55:51;;;;;;;5.15;3.92;;;14.50;56.40;;;;;;5109306;27;45306;-76
2023/04/17 07:58:18;;;;;;;4.45;3.50;;;14.50;56.40;;;;;;5108867;27;46391;-76
2023/04/17 08:00:46;;;;;;;4.20;3.63;;;14.60;56.40;;;;;;5109007;27;45272;-76
2023/04/17 08:03:14;;;;;;;4.85;3.88;;;14.60;56.40;;;;;;5108958;27;45263;-76
2023/04/17 08:05:40;;;;;;;4.15;3.30;;;14.60;56.40;;;;;;5109201;27;45631;-76
2023/04/17 08:08:07;;;;;;;3.55;3.08;;;14.60;56.40;;;;;;5108948;27;45480;-76
2023/04/17 08:10:34;;;;;;;4.05;3.47;;;14.60;56.40;;;;;;5108729;27;45247;-76
2023/04/17 08:13:01;;;;;;;4.53;3.50;;;14.60;56.30;;;;;;5108773;27;45393;-76
2023/04/17 08:15:28;;;;;;;5.53;3.95;;;14.60;56.50;;;;;;5109116;27;45353;-76
2023/04/17 08:17:57;;;;;;;4.35;3.33;;;14.60;56.40;;;;;;5108605;27;47588;-76
2023/04/17 08:20:24;;;;;;;5.65;3.85;;;14.60;56.50;;;;;;5108475;27;45423;-76
2023/04/17 08:22:50;;;;;;;4.45;3.50;;;14.60;56.50;;;;;;5108564;27;45263;-76
2023/04/17 08:25:17;;;;;;;4.68;3.65;;;14.60;56.50;;;;;;5108453;27;45273;-76
2023/04/17 08:27:45;;;;;;;4.40;3.50;;;14.60;56.40;;;;;;5108263;27;45520;-76
2023/04/17 08:30:12;;;;;;;4.60;3.60;;;14.60;56.30;;;;;;5108305;27;45335;-75
2023/04/17 08:32:39;;;;;;;5.38;3.92;;;14.60;56.30;;;;;;5108368;27;45269;-75
2023/04/17 08:35:10;;;;;;;3.80;3.40;;;14.60;56.40;;;;;;5108350;27;45461;-75
2023/04/17 08:37:37;;;;;;;4.78;3.53;;;14.70;56.30;;;;;;5108303;27;46310;-76
2023/04/17 08:40:05;;;;;;;4.38;3.35;;;14.70;56.30;;;;;;5108068;27;45408;-74
2023/04/17 08:42:34;;;;;;;3.50;3.17;;;14.60;56.20;;;;;;5108199;27;45315;-75
2023/04/17 08:45:03;;;;;;;3.63;3.00;;;14.60;56.20;;;;;;5107822;27;45289;-75
2023/04/17 08:47:30;;;;;;;3.63;3.00;;;14.70;56.20;;;;;;5107708;27;46367;-75
2023/04/17 08:49:57;;;;;;;3.63;3.15;;;14.60;55.90;;;;;;5107723;27;45353;-74
2023/04/17 08:52:25;;;;;;;3.60;2.83;;;14.60;56.20;;;;;;5108007;27;45453;-75
2023/04/17 08:54:53;;;;;;;4.20;3.13;;;14.70;56.20;;;;;;5108027;27;45430;-76
2023/04/17 08:57:20;;;;;;;4.00;3.22;;;14.70;56.20;;;;;;5107663;27;45738;-75
2023/04/17 08:59:47;;;;;;;5.00;3.33;;;14.70;56.20;;;;;;5107644;27;45256;-75
2023/04/17 09:02:13;;;;;;;3.65;3.10;;;14.60;56.10;;;;;;5107593;27;45300;-76
2023/04/17 09:04:41;;;;;;;4.35;3.10;;;14.70;56.10;;;;;;5107041;27;45307;-75
2023/04/17 09:07:08;;;;;;;3.83;2.90;;;14.60;56.20;;;;;;5107525;27;46788;-74
2023/04/17 09:09:55;;;;;;;4.75;3.50;;;14.60;56.10;;;;;;5107552;27;45267;-75
2023/04/17 09:12:22;;;;;;;4.22;3.30;;;14.70;56.20;;;;;;5107484;27;45352;-76
2023/04/17 09:14:49;;;;;;;4.93;3.40;;;14.60;56.30;;;;;;5107893;27;45506;-76
2023/04/17 09:17:17;;;;;;;3.50;2.90;;;14.70;56.30;;;;;;5107342;27;46664;-76
2023/04/17 09:20:06;;;;;;;3.88;2.80;;;14.70;56.20;;;;;;5107383;27;45371;-75
2023/04/17 09:22:33;;;;;;;3.65;3.25;;;14.70;56.20;;;;;;5107358;27;45314;-75
2023/04/17 09:25:01;;;;;;;3.58;2.80;;;14.70;56.20;;;;;;5107433;27;45417;-75
2023/04/17 09:27:28;;;;;;;3.08;2.75;;;14.70;56.20;;;;;;5106955;27;46620;-74
2023/04/17 09:29:56;;;;;;;4.68;3.50;;;14.70;56.10;;;;;;5107392;27;45390;-75
2023/04/17 09:32:23;;;;;;;3.38;2.60;;;14.70;56.10;;;;;;5107463;27;45425;-75
2023/04/17 09:34:50;;;;;;;3.58;2.88;;;14.70;56.10;;;;;;5107387;27;45355;-75
2023/04/17 09:37:17;;;;;;;3.75;3.28;;;14.70;56.00;;;;;;5106981;27;45451;-75
2023/04/17 09:39:56;;;;;;;4.93;3.00;;;14.70;55.90;;;;;;5107096;27;45390;-74
2023/04/17 09:42:24;;;;;;;3.63;2.97;;;14.70;55.90;;;;;;5107210;27;45260;-75
2023/04/17 09:44:51;;;;;;;2.90;2.58;;;14.80;56.00;;;;;;5106916;27;45378;-75
2023/04/17 09:47:18;;;;;;;4.13;2.90;;;14.80;55.70;;;;;;5106956;27;46401;-76
2023/04/17 09:49:49;;;;;;;3.22;2.63;;;14.80;55.90;;;;;;5106776;27;45333;-75
2023/04/17 09:52:15;;;;;;;3.45;2.78;;;14.80;55.80;;;;;;5106844;27;45327;-75
2023/04/17 09:54:42;;;;;;;4.32;2.90;;;14.80;55.60;;;;;;5107100;27;45349;-76
2023/04/17 09:57:09;;;;;;;3.35;2.95;;;14.90;55.70;;;;;;5106689;27;45456;-75
2023/04/17 09:59:40;;;;;;;3.45;2.90;;;14.90;55.70;;;;;;5106675;27;45238;-74
2023/04/17 10:02:08;;;;;;;4.00;3.05;;;15.00;55.50;;;;;;5106616;27;45422;-74
2023/04/17 10:04:35;;;;;;;3.95;2.53;;;15.00;55.60;;;;;;5106981;27;45350;-75
2023/04/17 10:07:03;;;;;;;3.70;2.53;;;15.00;55.60;;;;;;5106386;27;45788;-75
2023/04/17 10:09:30;;;;;;;3.97;2.78;;;15.00;55.50;;;;;;5106488;27;45267;-74
2023/04/17 10:11:56;;;;;;;4.13;2.90;;;15.00;55.60;;;;;;5106619;27;45275;-74
2023/04/17 10:14:25;;;;;;;3.00;2.70;;;15.00;55.60;;;;;;5106444;27;45419;-75
2023/04/17 10:16:53;;;;;;;3.35;2.97;;;15.00;55.80;;;;;;5103660;27;46145;-75
2023/04/17 10:19:28;;;;;;;5.05;2.92;;;15.10;55.80;;;;;;5106286;27;45294;-75
2023/04/17 10:22:29;;;;;;;4.93;2.85;;;15.10;55.90;;;;;;5106456;27;45341;-75
2023/04/17 10:25:17;;;;;;;5.03;2.88;;;15.00;55.80;;;;;;5106575;27;45596;-75
2023/04/17 10:27:45;;;;;;;2.92;2.63;;;15.10;56.20;;;;;;5106284;27;45287;-75
2023/04/17 10:30:12;;;;;;;5.15;2.75;;;15.10;56.40;;;;;;5106237;27;45354;-74
2023/04/17 10:32:41;;;;;;;5.18;2.90;;;15.10;56.30;;;;;;5106438;27;45229;-75
2023/04/17 10:35:36;;;;;;;8.73;2.67;;;15.20;56.40;;;;;;5106457;27;45184;-74
2023/04/17 10:38:04;;;;;;;8.93;2.80;;;15.20;56.40;;;;;;5106445;27;45323;-75
2023/04/17 10:40:32;;;;;;;4.93;2.38;;;15.30;56.70;;;;;;5106072;27;45318;-75
2023/04/17 10:43:03;;;;;;;4.10;2.67;;;15.30;56.70;;;;;;5106280;27;45298;-75
2023/04/17 10:45:51;;;;;;;5.65;2.25;;;15.30;56.70;;;;;;5106170;27;45370;-75
2023/04/17 10:48:27;;;;;;;3.72;2.67;;;15.30;56.80;;;;;;5105839;27;45410;-74
2023/04/17 10:50:54;;;;;;;2.45;2.10;;;15.40;56.80;;;;;;5105852;27;45327;-74
2023/04/17 10:53:43;;;;;;;4.13;2.53;;;15.40;56.90;;;;;;5106083;27;45397;-74
2023/04/17 10:56:11;;;;;;;2.30;2.03;;;15.40;56.70;;;;;;5106431;27;45291;-75
2023/04/17 10:58:39;;;;;;;2.58;2.05;;;15.40;56.80;;;;;;5105708;27;47328;-74
2023/04/17 11:01:10;;;;;;;6.75;2.17;;;15.40;57.30;;;;;;5106029;27;45381;-73
2023/04/17 11:03:38;;;;;;;3.22;2.40;;;15.40;56.80;;;;;;5105961;27;45343;-74
2023/04/17 11:06:06;;;;;;;4.80;2.50;;;15.40;56.70;;;;;;5106021;27;45213;-75
2023/04/17 11:08:33;;;;;;;3.05;2.05;;;15.40;56.90;;;;;;5105710;27;46352;-74
2023/04/17 11:10:59;;;;;;;2.50;2.30;;;15.30;56.80;;;;;;5102942;27;45340;-75
2023/04/17 11:13:31;;;;;;;3.22;2.40;;;15.30;56.70;;;;;;5105916;27;45335;-75
2023/04/17 11:15:57;;;;;;;3.58;2.20;;;15.30;57.00;;;;;;5106020;27;45305;-74
2023/04/17 11:18:25;;;;;;;2.70;2.45;;;15.30;56.80;;;;;;5105388;27;46809;-73
2023/04/17 11:20:53;;;;;;;3.35;2.13;;;15.30;56.70;;;;;;5105814;27;45464;-73
2023/04/17 11:23:20;;;;;;;3.88;2.33;;;15.40;56.80;;;;;;5105756;27;45347;-72
2023/04/17 11:25:47;;;;;;;2.50;1.90;;;15.40;56.60;;;;;;5105848;27;45232;-73
2023/04/17 11:28:13;;;;;;;3.08;2.08;;;15.40;57.20;;;;;;5108977;27;46416;-72
2023/04/17 11:30:43;;;;;;;12.43;7.15;;;15.40;56.70;;;;;;5109057;27;45381;-72
2023/04/17 11:33:10;;;;;;;6.53;3.58;;;15.40;57.10;;;;;;5109146;27;45304;-74
2023/04/17 11:35:38;;;;;;;7.85;5.40;;;15.40;57.00;;;;;;5109413;27;45407;-75
2023/04/17 11:38:16;;;;;;;6.50;5.00;;;15.40;57.20;;;;;;5108826;27;48625;-74
2023/04/17 11:40:44;;;;;;;8.95;4.25;;;15.50;57.30;;;;;;5108940;27;45320;-75
2023/04/17 11:43:11;;;;;;;8.73;5.22;;;15.50;57.30;;;;;;5109122;27;45308;-75
2023/04/17 11:45:39;;;;;;;8.20;5.60;;;15.50;57.20;;;;;;5108563;27;45482;-75
2023/04/17 11:48:06;;;;;;;11.65;5.15;;;15.60;57.10;;;;;;5108843;27;45479;-75
2023/04/17 11:50:33;;;;;;;9.45;5.20;;;15.60;56.90;;;;;;5108624;27;45311;-74
2023/04/17 11:53:00;;;;;;;6.93;4.72;;;15.70;56.90;;;;;;5108904;27;45316;-74
2023/04/17 11:55:30;;;;;;;8.07;5.15;;;15.70;56.80;;;;;;5109132;27;45320;-74
2023/04/17 11:57:57;;;;;;;7.63;4.95;;;15.70;56.80;;;;;;5108683;27;45461;-74
2023/04/17 12:00:28;;;;;;;9.63;4.82;;;15.70;56.70;;;;;;5108677;27;45522;-74
2023/04/17 12:02:56;;;;;;;6.78;4.45;;;15.70;56.70;;;;;;5109072;27;45424;-74
2023/04/17 12:05:23;;;;;;;5.95;4.72;;;15.70;56.70;;;;;;5108832;27;45394;-75
2023/04/17 12:08:00;;;;;;;7.38;4.68;;;15.70;56.80;;;;;;5108392;27;45395;-75
2023/04/17 12:10:37;;;;;;;12.23;5.20;;;15.70;56.80;;;;;;5108471;27;45301;-76
2023/04/17 12:13:04;;;;;;;9.55;4.72;;;15.70;56.70;;;;;;5108746;27;45275;-74
2023/04/17 12:15:31;;;;;;;9.88;6.53;;;15.70;56.40;;;;;;5108674;27;45249;-74
2023/04/17 12:17:58;;;;;;;7.97;5.45;;;15.70;56.60;;;;;;5108235;27;46906;-73
2023/04/17 12:20:25;;;;;;;7.57;5.20;;;15.70;56.60;;;;;;5108332;27;45341;-75
2023/04/17 12:22:52;;;;;;;9.27;5.30;;;15.70;56.70;;;;;;5108407;27;45315;-75
2023/04/17 12:25:18;;;;;;;7.43;5.22;;;15.70;56.70;;;;;;5108590;27;45380;-75
2023/04/17 12:27:47;;;;;;;7.55;5.03;;;15.80;56.60;;;;;;5107922;27;45468;-74
2023/04/17 12:30:15;;;;;;;7.20;5.20;;;15.80;56.70;;;;;;5108237;27;45280;-75
2023/04/17 12:32:44;;;;;;;7.40;4.82;;;16.00;56.10;;;;;;5108193;27;45261;-74
2023/04/17 12:35:11;;;;;;;8.20;4.80;;;16.20;55.80;;;;;;5108471;27;45312;-74
2023/04/17 12:37:38;;;;;;;5.95;4.60;;;16.40;55.30;;;;;;5106730;27;45318;-74
2023/04/17 12:40:06;;;;;;;6.25;4.20;;;16.50;55.10;;;;;;5107728;27;45411;-75
2023/04/17 12:42:33;;;;;;;6.55;4.55;;;16.60;54.80;;;;;;5108206;27;45264;-74
2023/04/17 12:45:01;;;;;;;7.07;4.60;;;16.70;54.60;;;;;;5107972;27;45478;-74
2023/04/17 12:47:28;;;;;;;6.72;4.65;;;16.80;54.40;;;;;;5107601;27;45307;-75
2023/04/17 12:49:55;;;;;;;5.80;3.92;;;16.80;54.30;;;;;;5107722;27;45296;-75